Time;durP1;ratioP1;P1;durP2;ratioP2;P2;SDS_P1;SDS_P2;PMS_P1;PMS_P2;Temp;Humidity;BMP_temperature;BMP_pressure;BME280_temperature;BME280_humidity;BME280_pressure;Samples;Min_cycle;Max_cycle;Signal;HPM_P1;HPM_P2
2022/06/05 00:01:22;;;;;;;20.17;8.85;;;;;;;18.95;61.24;101517.13;5044719;28;20083;-67
2022/06/05 00:03:59;;;;;;;20.95;8.85;;;;;;;18.92;62.16;101521.69;5039826;28;20468;-66
2022/06/05 00:06:32;;;;;;;19.90;8.95;;;;;;;18.87;62.21;101515.53;5044871;28;20128;-65
2022/06/05 00:09:26;;;;;;;20.95;8.98;;;;;;;18.85;61.84;101514.66;5044085;28;20083;-67
2022/06/05 00:12:13;;;;;;;20.45;9.20;;;;;;;18.79;62.04;101516.50;5040791;28;20025;-65
2022/06/05 00:14:40;;;;;;;20.02;8.80;;;;;;;18.73;63.20;101500.56;5042612;28;20037;-67
2022/06/05 00:17:09;;;;;;;22.20;9.25;;;;;;;18.63;63.77;101486.47;5044844;28;20488;-67
2022/06/05 00:19:37;;;;;;;20.75;9.00;;;;;;;18.59;63.75;101491.91;5043072;28;20099;-64
2022/06/05 00:22:02;;;;;;;21.48;9.30;;;;;;;18.54;64.44;101493.81;5044714;28;20048;-67
2022/06/05 00:24:27;;;;;;;20.88;9.05;;;;;;;18.49;64.79;101490.31;5043538;28;20025;-67
2022/06/05 00:27:24;;;;;;;20.45;9.07;;;;;;;18.46;63.96;101486.81;5043266;28;20032;-67
2022/06/05 00:29:52;;;;;;;19.60;8.88;;;;;;;18.39;65.18;101490.50;5039631;28;20495;-60
2022/06/05 00:32:26;;;;;;;20.20;9.00;;;;;;;18.37;65.41;101494.13;5044972;28;20049;-60
2022/06/05 00:34:51;;;;;;;21.13;9.38;;;;;;;18.33;65.41;101485.25;5042836;28;20048;-60
2022/06/05 00:37:38;;;;;;;22.65;9.38;;;;;;;18.35;64.74;101471.81;5045045;28;20472;-60
2022/06/05 00:40:37;;;;;;;19.50;8.70;;;;;;;18.32;64.91;101471.88;5044243;28;20128;-60
2022/06/05 00:43:09;;;;;;;20.67;9.35;;;;;;;18.22;65.55;101460.50;5042921;28;20025;-61
2022/06/05 00:45:35;;;;;;;;;;;;;;;18.30;64.16;101463.88;5042798;28;20490;-61
2022/06/05 00:48:01;;;;;;;20.45;9.10;;;;;;;18.16;66.34;101465.94;5043738;28;19992;-63
2022/06/05 00:50:31;;;;;;;20.80;9.32;;;;;;;18.10;66.67;101459.78;5043873;28;20036;-63
2022/06/05 00:53:00;;;;;;;19.52;8.77;;;;;;;18.04;67.08;101464.34;5042759;28;20431;-62
2022/06/05 00:55:29;;;;;;;20.63;9.63;;;;;;;18.01;66.97;101467.94;5043734;28;20032;-63
2022/06/05 00:57:55;;;;;;;21.42;9.73;;;;;;;17.96;67.43;101468.97;5042824;28;20048;-63
2022/06/05 01:00:27;;;;;;;21.15;9.10;;;;;;;17.99;67.54;101464.44;5043476;28;20031;-62
2022/06/05 01:02:55;;;;;;;21.50;9.63;;;;;;;17.96;67.56;101463.63;5042388;28;20032;-63
2022/06/05 01:05:22;;;;;;;20.52;9.38;;;;;;;17.96;67.61;101460.94;5043887;28;20107;-63
2022/06/05 01:07:48;;;;;;;20.35;9.63;;;;;;;17.97;67.12;101465.34;5041733;28;20047;-63
2022/06/05 01:10:15;;;;;;;20.65;9.13;;;;;;;17.93;68.18;101475.25;5044869;28;20468;-62
2022/06/05 01:12:52;;;;;;;21.42;9.73;;;;;;;17.94;67.80;101463.63;5040291;28;20381;-63
2022/06/05 01:15:25;;;;;;;20.25;9.45;;;;;;;17.93;68.44;101460.06;5038377;28;20506;-62
2022/06/05 01:17:59;;;;;;;20.08;8.90;;;;;;;17.96;67.87;101458.25;5043752;28;20116;-70
2022/06/05 01:21:00;;;;;;;21.08;9.30;;;;;;;18.09;66.46;101466.03;5042535;28;20038;-65
2022/06/05 01:23:53;;;;;;;20.38;8.93;;;;;;;17.97;67.22;101484.97;5018423;28;20038;-67
2022/06/05 01:26:30;;;;;;;20.90;8.90;;;;;;;18.03;67.27;101516.97;5019664;28;20034;-64
2022/06/05 01:29:06;;;;;;;20.38;9.27;;;;;;;17.94;66.82;101536.72;5021319;28;20033;-65
2022/06/05 01:31:36;;;;;;;19.90;9.15;;;;;;;17.94;67.50;101493.94;5021136;28;20493;-65
2022/06/05 01:34:10;;;;;;;21.30;9.55;;;;;;;17.99;67.77;101507.22;5019956;28;20050;-65
2022/06/05 01:36:55;;;;;;;19.92;9.50;;;;;;;17.92;68.20;101540.31;5021616;28;20057;-66
2022/06/05 01:39:36;;;;;;;20.65;9.50;;;;;;;17.91;68.13;101509.13;5016919;28;20091;-64
2022/06/05 01:42:13;;;;;;;19.80;9.10;;;;;;;17.97;68.99;101471.59;5020208;28;20035;-65
2022/06/05 01:44:48;;;;;;;20.73;9.50;;;;;;;18.02;69.39;101475.06;5022089;28;20029;-65
2022/06/05 01:47:36;;;;;;;20.60;9.75;;;;;;;18.05;68.65;101501.78;5018837;28;20038;-66
2022/06/05 01:50:07;;;;;;;21.17;9.88;;;;;;;18.05;68.86;101488.38;5020274;28;20029;-65
2022/06/05 01:52:38;;;;;;;19.63;9.55;;;;;;;18.11;69.34;101490.09;5020966;28;20045;-65
2022/06/05 01:55:22;;;;;;;20.77;8.95;;;;;;;18.20;69.06;101473.00;5019571;28;20037;-65
2022/06/05 01:57:50;;;;;;;20.42;9.20;;;;;;;18.14;69.81;101465.94;5018838;28;20026;-65
2022/06/05 02:00:18;;;;;;;21.25;9.32;;;;;;;18.19;69.50;101461.41;5036077;28;20064;-66
2022/06/05 02:03:02;;;;;;;20.52;9.75;;;;;;;18.22;68.40;101458.69;5037169;28;20029;-67
2022/06/05 02:05:40;;;;;;;20.48;9.10;;;;;;;18.20;68.78;101443.56;5040362;28;20041;-67
2022/06/05 02:08:12;;;;;;;21.08;10.40;;;;;;;18.24;68.42;101440.78;5041243;28;20029;-65
2022/06/05 02:10:50;;;;;;;20.85;10.00;;;;;;;18.21;67.81;101424.81;5045205;28;20537;-64
2022/06/05 02:13:18;;;;;;;21.23;10.13;;;;;;;18.17;68.04;101428.44;5041241;28;20041;-66
2022/06/05 02:15:43;;;;;;;21.50;10.20;;;;;;;18.15;68.20;101419.56;5041011;28;20032;-64
2022/06/05 02:18:11;;;;;;;20.27;9.65;;;;;;;18.06;69.47;101409.03;5047490;28;20025;-65
2022/06/05 02:20:37;;;;;;;20.38;9.73;;;;;;;17.99;69.67;101394.88;5044973;28;20033;-67
2022/06/05 02:23:05;;;;;;;21.90;10.20;;;;;;;17.96;69.50;101381.56;5046832;28;20106;-64
2022/06/05 02:25:31;;;;;;;21.27;9.88;;;;;;;17.94;69.33;101375.38;5045680;28;20017;-67
2022/06/05 02:27:58;;;;;;;20.55;9.68;;;;;;;17.93;68.91;101373.59;5045555;28;20099;-65
2022/06/05 02:30:29;;;;;;;20.70;9.68;;;;;;;17.87;69.41;101373.69;5046764;28;20032;-64
2022/06/05 02:33:00;;;;;;;20.70;9.30;;;;;;;17.90;68.92;101371.88;5044982;28;20092;-64
2022/06/05 02:35:28;;;;;;;20.93;10.10;;;;;;;17.87;68.61;101366.53;5046730;28;20410;-65
2022/06/05 02:38:18;;;;;;;22.25;10.20;;;;;;;17.82;69.55;101368.41;5045298;28;20366;-66
2022/06/05 02:40:53;;;;;;;21.65;10.13;;;;;;;17.75;74.29;101361.38;5040275;28;20036;-63
2022/06/05 02:43:27;;;;;;;20.88;10.32;;;;;;;17.61;77.96;101342.94;5041155;28;20423;-64
2022/06/05 02:46:20;;;;;;;21.70;10.38;;;;;;;17.49;77.04;101337.78;5046299;28;20033;-65
2022/06/05 02:49:04;;;;;;;;;;;;;;;17.54;74.17;101333.25;5044666;28;20076;-65
2022/06/05 02:51:38;;;;;;;21.50;10.40;;;;;;;17.24;78.15;101315.03;5044249;28;19978;-65
2022/06/05 02:54:03;;;;;;;21.35;10.63;;;;;;;17.18;77.97;101306.22;5044689;28;20064;-64
2022/06/05 02:56:31;;;;;;;21.77;10.27;;;;;;;17.11;77.81;101299.19;5045653;28;20049;-65
2022/06/05 02:58:58;;;;;;;21.17;10.48;;;;;;;17.02;79.84;101302.91;5045980;28;20127;-65
2022/06/05 03:04:08;;;;;;;22.85;10.73;;;;;;;16.92;78.36;101280.81;5044223;28;20060;-64
2022/06/05 03:06:35;;;;;;;21.75;9.98;;;;;;;16.89;77.37;101280.84;5045869;28;20037;-67
2022/06/05 03:09:01;;;;;;;20.67;9.80;;;;;;;16.82;78.29;101281.78;5045107;28;20021;-66
2022/06/05 03:11:26;;;;;;;20.70;9.57;;;;;;;16.76;78.10;101271.22;5044481;28;20033;-66
2022/06/05 03:13:52;;;;;;;21.42;10.32;;;;;;;16.72;78.18;101268.59;5046356;28;20029;-65
2022/06/05 03:16:17;;;;;;;20.85;9.93;;;;;;;16.65;78.46;101269.59;5043837;28;20084;-60
2022/06/05 03:18:43;;;;;;;21.75;9.95;;;;;;;16.63;77.56;101259.81;5047026;28;20120;-61
2022/06/05 03:21:08;;;;;;;21.95;9.90;;;;;;;16.62;77.45;101266.09;5043970;28;20044;-61
2022/06/05 03:23:34;;;;;;;20.90;10.02;;;;;;;16.54;78.03;101268.84;5045141;28;20472;-61
2022/06/05 03:26:00;;;;;;;21.52;9.90;;;;;;;16.54;78.04;101269.75;5044705;28;20107;-61
2022/06/05 03:28:25;;;;;;;21.65;9.85;;;;;;;16.53;78.57;101267.09;5044163;28;20057;-60
2022/06/05 03:30:51;;;;;;;21.38;10.10;;;;;;;16.55;77.42;101275.97;5046178;28;20024;-61
2022/06/05 03:33:17;;;;;;;21.02;10.13;;;;;;;16.54;77.46;101279.50;5042940;28;20046;-61
2022/06/05 03:35:44;;;;;;;22.17;10.15;;;;;;;16.56;77.16;101299.94;5039090;28;20021;-63
2022/06/05 03:38:11;;;;;;;21.38;10.00;;;;;;;16.58;76.51;101296.38;5046554;28;20057;-62
2022/06/05 03:40:40;;;;;;;20.73;9.65;;;;;;;16.59;76.95;101307.03;5043584;28;20017;-62
2022/06/05 03:43:05;;;;;;;23.65;10.00;;;;;;;16.69;76.18;101307.81;5045250;28;20564;-62
2022/06/05 03:45:31;;;;;;;21.98;9.77;;;;;;;16.68;76.82;101300.69;5044457;28;20060;-62
2022/06/05 03:47:56;;;;;;;21.52;9.90;;;;;;;16.68;76.37;101292.69;5044137;28;20112;-63
2022/06/05 03:50:22;;;;;;;21.13;9.65;;;;;;;16.69;75.49;101297.13;5045844;28;20033;-62
2022/06/05 03:52:47;;;;;;;22.08;9.90;;;;;;;16.67;75.51;101293.59;5042829;28;20104;-62
2022/06/05 03:55:15;;;;;;;22.48;9.90;;;;;;;16.61;75.89;101301.69;5046088;28;20021;-62
2022/06/05 03:57:40;;;;;;;21.02;9.88;;;;;;;16.63;75.33;101307.88;5042858;28;20472;-63
2022/06/05 04:00:07;;;;;;;21.35;9.60;;;;;;;16.59;75.84;101300.81;5044920;28;20025;-63
2022/06/05 04:02:33;;;;;;;21.67;9.45;;;;;;;16.61;75.72;101307.88;5043702;28;20087;-62
2022/06/05 04:05:03;;;;;;;21.63;9.75;;;;;;;16.62;75.34;101300.78;5044204;28;20069;-63
2022/06/05 04:07:28;;;;;;;20.58;9.27;;;;;;;16.62;75.56;101307.00;5044189;28;20028;-62
2022/06/05 04:09:54;;;;;;;20.70;9.50;;;;;;;16.59;75.45;101304.38;5043243;28;20033;-62
2022/06/05 04:12:19;;;;;;;21.13;9.48;;;;;;;16.57;75.14;101303.50;5045335;28;20025;-62
2022/06/05 04:14:44;;;;;;;21.88;10.10;;;;;;;16.52;75.83;101292.00;5042454;28;20039;-62
2022/06/05 04:17:11;;;;;;;20.45;9.30;;;;;;;16.51;75.20;101284.91;5045391;28;20025;-62
2022/06/05 04:19:36;;;;;;;20.40;9.45;;;;;;;16.48;75.95;101287.59;5043256;28;20415;-62
2022/06/05 04:22:02;;;;;;;21.48;9.80;;;;;;;16.46;76.36;101279.63;5044026;28;20021;-62
2022/06/05 04:24:28;;;;;;;21.20;9.70;;;;;;;16.48;76.23;101279.59;5044216;28;20055;-63
2022/06/05 04:26:53;;;;;;;21.75;9.43;;;;;;;16.47;75.55;101277.81;5043413;28;20021;-63
2022/06/05 04:29:18;;;;;;;21.58;9.60;;;;;;;16.50;76.50;101277.81;5045570;28;20052;-64
2022/06/05 04:31:47;;;;;;;21.25;9.65;;;;;;;16.47;76.65;101278.72;5042079;28;20040;-62
2022/06/05 04:34:16;;;;;;;20.98;9.73;;;;;;;16.45;76.63;101275.19;5040902;28;20132;-62
2022/06/05 04:36:43;;;;;;;20.65;9.38;;;;;;;16.46;76.58;101282.28;5045153;28;20388;-62
2022/06/05 04:39:09;;;;;;;20.52;9.90;;;;;;;16.49;76.53;101276.03;5042276;28;20480;-62
2022/06/05 04:41:35;;;;;;;22.33;10.50;;;;;;;16.45;76.54;101277.84;5044242;28;20059;-62
2022/06/05 04:44:00;;;;;;;21.05;10.07;;;;;;;16.41;76.48;101269.91;5043375;28;20071;-63
2022/06/05 04:46:29;;;;;;;22.00;9.90;;;;;;;16.42;77.20;101282.38;5042661;28;20059;-64
2022/06/05 04:48:55;;;;;;;21.35;9.75;;;;;;;16.42;77.01;101277.03;5044512;28;20028;-62
2022/06/05 04:51:21;;;;;;;21.90;10.00;;;;;;;16.35;78.00;101278.88;5057330;28;20025;-62
2022/06/05 04:53:49;;;;;;;21.90;9.95;;;;;;;16.33;78.04;101278.91;5044823;28;20476;-64
2022/06/05 04:56:17;;;;;;;22.52;9.98;;;;;;;16.31;77.62;101277.16;5038040;28;20044;-62
2022/06/05 04:58:42;;;;;;;22.20;9.80;;;;;;;16.30;78.94;101283.41;5044692;28;20032;-62
2022/06/05 05:01:11;;;;;;;22.67;9.70;;;;;;;16.29;79.09;101276.28;5042097;28;20494;-63
2022/06/05 05:03:36;;;;;;;21.63;10.02;;;;;;;16.29;79.26;101273.63;5043984;28;20087;-62
2022/06/05 05:06:01;;;;;;;21.88;10.10;;;;;;;16.30;79.16;101275.41;5042787;28;20025;-62
2022/06/05 05:08:27;;;;;;;21.02;9.80;;;;;;;16.32;79.15;101274.47;5042737;28;20025;-62
2022/06/05 05:10:52;;;;;;;23.90;10.32;;;;;;;16.28;79.38;101277.19;5044310;28;20021;-64
2022/06/05 05:13:17;;;;;;;21.02;10.05;;;;;;;16.26;79.43;101284.34;5040915;28;20083;-68
2022/06/05 05:15:48;;;;;;;21.80;10.35;;;;;;;16.28;79.27;101294.09;5044875;28;20098;-68
2022/06/05 05:18:14;;;;;;;22.13;10.10;;;;;;;16.30;79.17;101289.59;5037525;28;20097;-67
2022/06/05 05:20:39;;;;;;;21.50;10.32;;;;;;;16.33;78.61;101286.03;5044046;28;20107;-68
2022/06/05 05:23:04;;;;;;;22.15;10.30;;;;;;;16.37;78.68;101287.75;5042198;28;20028;-68
2022/06/05 05:25:30;;;;;;;21.52;10.30;;;;;;;16.44;78.93;101284.13;5043018;28;20484;-67
2022/06/05 05:27:55;;;;;;;22.85;10.55;;;;;;;16.47;78.43;101288.50;5043604;28;20021;-68
2022/06/05 05:30:21;;;;;;;22.10;10.60;;;;;;;16.52;79.09;101286.66;5041513;28;20079;-67
2022/06/05 05:32:47;;;;;;;21.45;10.18;;;;;;;16.54;78.97;101285.75;5044411;28;20045;-69
2022/06/05 05:35:12;;;;;;;23.13;10.70;;;;;;;16.61;78.61;101281.19;5040984;28;20029;-69
2022/06/05 05:37:37;;;;;;;21.67;9.95;;;;;;;16.63;78.53;101284.75;5043717;28;20022;-67
2022/06/05 05:42:47;;;;;;;22.30;10.40;;;;;;;16.65;78.49;101280.25;5037402;28;20392;-69
2022/06/05 05:45:12;;;;;;;21.58;10.15;;;;;;;16.67;79.05;101278.47;5044038;28;20055;-69
2022/06/05 05:47:38;;;;;;;21.50;10.27;;;;;;;16.73;78.58;101286.38;5041962;28;20025;-69
2022/06/05 05:50:11;;;;;;;22.35;10.68;;;;;;;16.77;77.39;101281.88;5043093;28;20017;-67
2022/06/05 05:52:37;;;;;;;21.55;10.20;;;;;;;16.78;77.96;101285.44;5041972;28;20059;-69
2022/06/05 05:55:03;;;;;;;21.77;10.23;;;;;;;16.79;78.69;101287.19;5042521;28;20064;-67
2022/06/05 05:57:28;;;;;;;23.33;10.85;;;;;;;16.79;79.06;101276.50;5042656;28;20021;-67
2022/06/05 05:59:54;;;;;;;21.58;10.40;;;;;;;16.86;78.89;101278.19;5041324;28;20029;-66
2022/06/05 06:02:22;;;;;;;22.33;10.38;;;;;;;16.87;78.02;101269.28;5044315;28;20064;-68
2022/06/05 06:04:49;;;;;;;22.13;10.35;;;;;;;16.85;78.94;101263.09;5040894;28;20452;-68
2022/06/05 06:07:15;;;;;;;22.05;10.32;;;;;;;16.96;78.07;101260.28;5040846;28;20076;-69
2022/06/05 06:09:41;;;;;;;21.17;10.10;;;;;;;17.08;77.94;101255.63;5043702;28;20468;-69
2022/06/05 06:12:07;;;;;;;22.05;10.85;;;;;;;17.12;77.42;101256.44;5039931;28;20491;-68
2022/06/05 06:14:33;;;;;;;21.83;10.38;;;;;;;17.23;77.16;101242.94;5042437;28;20124;-68
2022/06/05 06:17:02;;;;;;;22.27;10.70;;;;;;;17.28;77.31;101246.38;5042814;28;20021;-62
2022/06/05 06:19:27;;;;;;;21.52;10.88;;;;;;;17.36;76.65;101232.91;5042325;28;20057;-68
2022/06/05 06:21:52;;;;;;;21.48;10.25;;;;;;;17.46;76.32;101228.25;5043206;28;20068;-68
2022/06/05 06:24:18;;;;;;;21.35;10.57;;;;;;;17.56;76.69;101229.84;5040479;28;20025;-66
2022/06/05 06:26:44;;;;;;;21.55;10.25;;;;;;;17.68;75.47;101236.75;5043477;28;20430;-69
2022/06/05 06:29:09;;;;;;;21.40;10.57;;;;;;;17.74;76.03;101232.19;5040910;28;20034;-69
2022/06/05 06:31:38;;;;;;;21.88;10.48;;;;;;;17.82;75.46;101220.47;5042601;28;20052;-68
2022/06/05 06:34:04;;;;;;;21.65;10.98;;;;;;;17.93;75.34;101215.81;5041387;28;20071;-65
2022/06/05 06:36:29;;;;;;;21.73;10.88;;;;;;;18.08;74.96;101212.81;5041647;28;20037;-68
2022/06/05 06:38:54;;;;;;;21.30;10.80;;;;;;;18.18;74.57;101213.50;5043006;28;20029;-68
2022/06/05 06:41:20;;;;;;;21.42;10.82;;;;;;;18.31;73.95;101208.78;5040243;28;20104;-69
2022/06/05 06:43:47;;;;;;;22.10;10.93;;;;;;;18.41;72.67;101199.63;5043424;28;20408;-69
2022/06/05 06:46:14;;;;;;;21.58;11.35;;;;;;;18.43;73.46;101204.94;5040482;28;20062;-67
2022/06/05 06:48:40;;;;;;;21.33;11.00;;;;;;;18.57;72.98;101183.22;5035979;28;20385;-67
2022/06/05 06:51:06;;;;;;;22.95;11.60;;;;;;;18.67;71.64;101190.13;5043143;28;20025;-67
2022/06/05 06:53:34;;;;;;;23.08;11.68;;;;;;;18.75;72.21;101190.78;5039844;28;20361;-68
2022/06/05 06:56:05;;;;;;;22.48;11.38;;;;;;;18.76;70.37;101184.53;5043378;28;20017;-66
2022/06/05 06:58:30;;;;;;;22.00;11.48;;;;;;;18.87;71.02;101191.44;5044756;28;20025;-65
2022/06/05 07:00:55;;;;;;;21.65;11.60;;;;;;;18.82;72.07;101205.78;5044674;28;20392;-63
2022/06/05 07:03:21;;;;;;;22.23;11.48;;;;;;;18.85;71.45;101198.63;5043381;28;20495;-67
2022/06/05 07:05:46;;;;;;;22.70;11.77;;;;;;;18.93;71.79;101186.84;5046730;28;20057;-68
2022/06/05 07:08:11;;;;;;;22.38;12.00;;;;;;;18.99;70.41;101191.16;5044424;28;20017;-64
2022/06/05 07:10:37;;;;;;;21.08;11.32;;;;;;;19.10;69.92;101182.84;5047180;28;20442;-68
2022/06/05 07:13:03;;;;;;;21.88;12.15;;;;;;;19.21;69.96;101186.13;5043869;28;20028;-64
2022/06/05 07:15:34;;;;;;;22.58;11.73;;;;;;;19.32;70.58;101178.69;5042857;28;20033;-64
2022/06/05 07:18:04;;;;;;;21.83;11.75;;;;;;;19.45;69.58;101168.47;5038328;28;20032;-70
2022/06/05 07:20:38;;;;;;;22.77;11.70;;;;;;;19.74;69.64;101168.59;5046775;28;20029;-70
2022/06/05 07:23:05;;;;;;;22.20;11.63;;;;;;;19.83;68.35;101173.72;5046502;28;20027;-71
2022/06/05 07:25:32;;;;;;;22.85;11.45;;;;;;;19.95;67.23;101167.13;5045704;28;20025;-69
2022/06/05 07:27:57;;;;;;;21.10;10.88;;;;;;;19.96;67.81;101164.38;5044049;28;20048;-71
2022/06/05 07:30:23;;;;;;;22.45;11.80;;;;;;;20.02;67.99;101166.91;5043665;28;20460;-69
2022/06/05 07:32:49;;;;;;;21.83;11.13;;;;;;;20.25;67.76;101164.44;5046763;28;20045;-69
2022/06/05 07:35:15;;;;;;;21.63;11.68;;;;;;;20.36;67.32;101168.53;5044758;28;20044;-70
2022/06/05 07:37:41;;;;;;;21.63;11.02;;;;;;;20.42;64.91;101154.06;5044906;28;20108;-67
2022/06/05 07:40:07;;;;;;;21.23;11.23;;;;;;;20.44;64.79;101152.19;5047548;28;20070;-71
2022/06/05 07:42:38;;;;;;;21.08;10.88;;;;;;;20.42;64.28;101146.00;5043363;28;20427;-70
2022/06/05 07:45:04;;;;;;;22.13;11.65;;;;;;;20.50;64.62;101154.69;5040821;28;20036;-68
2022/06/05 07:47:30;;;;;;;20.90;11.43;;;;;;;20.59;63.40;101152.63;5045660;28;20029;-68
2022/06/05 07:49:56;;;;;;;22.92;11.50;;;;;;;20.62;64.93;101148.03;5045502;28;20021;-68
2022/06/05 07:55:05;;;;;;;22.05;11.18;;;;;;;20.80;63.13;101143.91;5040267;28;20083;-68
2022/06/05 07:57:31;;;;;;;21.63;12.00;;;;;;;20.87;62.99;101136.53;5045613;28;20048;-68
2022/06/05 07:59:56;;;;;;;21.75;11.38;;;;;;;20.95;62.69;101128.19;5045315;28;20071;-68
2022/06/05 08:02:27;;;;;;;21.40;11.40;;;;;;;21.08;61.90;101126.81;5045337;28;20017;-68
2022/06/05 08:04:53;;;;;;;21.80;11.73;;;;;;;21.11;61.84;101117.78;5047216;28;20017;-68
2022/06/05 08:07:22;;;;;;;21.70;11.45;;;;;;;21.12;61.12;101120.41;5043185;28;20060;-67
2022/06/05 08:09:48;;;;;;;22.35;11.93;;;;;;;21.18;61.40;101120.19;5045383;28;20026;-68
2022/06/05 08:12:15;;;;;;;21.67;11.32;;;;;;;21.28;61.85;101119.88;5040455;28;20079;-69
2022/06/05 08:14:44;;;;;;;21.33;11.52;;;;;;;21.52;61.67;101119.00;5040678;28;20025;-71
2022/06/05 08:17:12;;;;;;;25.40;12.38;;;;;;;21.50;60.38;101112.78;5045014;28;20029;-67
2022/06/05 08:19:39;;;;;;;25.13;11.77;;;;;;;21.64;61.55;101116.78;5044101;28;20027;-68
2022/06/05 08:22:06;;;;;;;21.92;12.18;;;;;;;21.74;59.58;101124.47;5047512;28;20052;-69
2022/06/05 08:24:32;;;;;;;24.33;15.50;;;;;;;21.74;60.09;101111.00;5041294;28;20030;-67
2022/06/05 08:26:57;;;;;;;26.08;17.10;;;;;;;22.03;60.95;101106.31;5045115;28;20171;-65
2022/06/05 08:29:22;;;;;;;26.67;14.98;;;;;;;22.44;59.61;101106.50;5044734;28;20040;-69
2022/06/05 08:31:48;;;;;;;23.42;12.70;;;;;;;22.89;57.88;101103.72;5044709;28;20029;-68
2022/06/05 08:34:14;;;;;;;21.90;12.70;;;;;;;23.24;56.86;101104.94;5044583;28;20060;-68
2022/06/05 08:36:41;;;;;;;24.15;13.95;;;;;;;23.39;54.94;101105.19;5041959;28;20025;-68
2022/06/05 08:42:11;;;;;;;25.20;15.48;;;;;;;23.71;55.26;101108.19;5041314;28;20119;-68
2022/06/05 08:44:52;;;;;;;44.22;29.48;;;;;;;23.98;54.34;101106.97;5037985;28;20049;-69
2022/06/05 08:47:27;;;;;;;35.08;21.33;;;;;;;23.98;53.07;101106.97;5044523;28;20026;-68
2022/06/05 08:49:58;;;;;;;83.65;51.17;;;;;;;23.92;54.55;101109.94;5044815;28;20026;-68
2022/06/05 08:52:48;;;;;;;28.63;18.08;;;;;;;23.72;54.41;101102.75;5043256;28;20428;-68
2022/06/05 08:55:26;;;;;;;27.58;20.20;;;;;;;23.27;55.35;101114.69;5041638;28;20021;-71
2022/06/05 08:57:58;;;;;;;39.95;32.08;;;;;;;22.84;56.79;101117.41;5042572;28;20129;-68
2022/06/05 09:00:43;;;;;;;41.20;31.25;;;;;;;22.70;58.43;101122.50;5038730;28;20025;-70
2022/06/05 09:03:13;;;;;;;45.78;33.90;;;;;;;22.56;58.56;101123.09;5032226;28;20026;-73
2022/06/05 09:05:42;;;;;;;39.22;29.13;;;;;;;22.47;58.23;101124.34;5038584;28;20029;-69
2022/06/05 09:08:15;;;;;;;30.52;21.15;;;;;;;22.39;59.45;101123.78;5041558;28;20477;-69
2022/06/05 09:10:49;;;;;;;29.45;21.65;;;;;;;22.32;59.48;101124.94;5041558;28;20036;-70
2022/06/05 09:13:37;;;;;;;33.97;25.05;;;;;;;22.33;59.82;101116.81;5043463;28;20025;-68
2022/06/05 09:16:11;;;;;;;36.17;28.98;;;;;;;22.25;60.09;101122.50;5039103;28;20105;-67
2022/06/05 09:18:43;;;;;;;43.00;37.97;;;;;;;22.15;62.06;101118.41;5040321;28;20071;-64
2022/06/05 09:21:50;;;;;;;37.20;30.00;;;;;;;22.16;61.12;101120.13;5041062;28;20048;-65
2022/06/05 09:24:23;;;;;;;29.65;23.38;;;;;;;22.06;62.38;101116.97;5033278;28;20037;-64
2022/06/05 09:26:58;;;;;;;45.50;40.67;;;;;;;21.92;62.38;101101.34;5029248;28;20095;-67
2022/06/05 09:29:30;;;;;;;32.03;21.42;;;;;;;21.85;64.16;101105.19;5031757;28;20468;-63
2022/06/05 09:32:11;;;;;;;28.98;23.42;;;;;;;21.72;63.93;101109.31;5034131;28;20044;-62
2022/06/05 09:34:49;;;;;;;25.70;19.15;;;;;;;21.57;64.18;101100.00;5010439;28;20080;-66
2022/06/05 09:37:39;;;;;;;26.50;17.20;;;;;;;21.55;64.67;101105.44;5011518;28;20121;-67
2022/06/05 09:40:16;;;;;;;24.95;14.77;;;;;;;21.63;65.26;101096.22;5009923;28;20033;-67
2022/06/05 09:43:08;;;;;;;24.33;16.35;;;;;;;21.62;64.91;101097.16;5015872;28;20072;-67
2022/06/05 09:46:08;;;;;;;24.77;15.70;;;;;;;21.53;65.06;101090.31;5009796;28;20049;-67
2022/06/05 09:49:01;;;;;;;125.95;49.28;;;;;;;21.53;65.39;101087.59;5009459;28;20533;-66
2022/06/05 09:51:27;;;;;;;73.50;40.53;;;;;;;21.41;67.46;101083.53;5007838;28;20034;-66
2022/06/05 09:54:04;;;;;;;32.03;20.50;;;;;;;21.36;67.03;101077.44;5013476;28;20041;-66
2022/06/05 09:59:46;;;;;;;36.17;24.05;;;;;;;21.35;67.81;101067.66;4992844;28;20073;-66
2022/06/05 10:02:15;;;;;;;36.03;21.60;;;;;;;21.47;68.90;101048.34;4995833;28;20493;-66
2022/06/05 10:04:41;;;;;;;44.85;25.23;;;;;;;21.61;69.45;101053.25;4994485;28;20038;-66
2022/06/05 10:07:16;;;;;;;43.13;27.73;;;;;;;21.64;69.52;101054.91;4994660;28;20018;-66
2022/06/05 10:09:45;;;;;;;36.78;22.95;;;;;;;21.72;70.14;101055.50;4992336;28;20389;-66
2022/06/05 10:12:50;;;;;;;30.60;20.10;;;;;;;21.68;69.33;101059.25;5001237;28;20057;-66
2022/06/05 10:15:32;;;;;;;38.55;26.83;;;;;;;21.71;72.97;101059.13;5004290;28;20034;-66
2022/06/05 10:18:03;;;;;;;43.75;27.13;;;;;;;21.80;74.37;101052.50;4999753;28;20433;-66
2022/06/05 10:20:36;;;;;;;42.90;25.75;;;;;;;21.94;74.22;101056.44;5003235;28;20473;-66
2022/06/05 10:23:11;;;;;;;34.15;21.10;;;;;;;22.14;74.10;101054.75;5002176;28;20122;-66
2022/06/05 10:25:50;;;;;;;38.63;23.20;;;;;;;22.22;72.15;101051.72;5002142;28;20030;-66
2022/06/05 10:28:22;;;;;;;38.15;23.80;;;;;;;22.20;73.85;101057.16;5004058;28;20388;-66
2022/06/05 10:30:56;;;;;;;44.88;27.23;;;;;;;22.03;72.17;101052.50;4997243;28;20421;-66
2022/06/05 10:33:48;;;;;;;112.55;54.95;;;;;;;21.79;75.87;101046.25;5016303;28;20507;-65
2022/06/05 10:36:22;;;;;;;52.88;36.40;;;;;;;21.54;79.64;101049.03;5044627;28;20044;-66
2022/06/05 10:38:50;;;;;;;82.50;36.55;;;;;;;21.48;78.04;101047.41;5043828;28;20014;-66
2022/06/05 10:41:24;;;;;;;112.15;49.95;;;;;;;21.48;78.74;101041.16;5047293;28;20025;-66
2022/06/05 10:44:10;;;;;;;73.28;44.90;;;;;;;21.53;80.70;101047.28;5043742;28;20025;-67
2022/06/05 10:46:43;;;;;;;48.38;30.77;;;;;;;21.47;78.77;101044.78;5044393;28;20104;-66
2022/06/05 10:49:55;;;;;;;48.83;31.70;;;;;;;21.43;81.31;101044.00;5044844;28;20044;-66
2022/06/05 10:52:28;;;;;;;64.57;39.65;;;;;;;21.29;85.35;101036.50;4982391;28;20130;-62
2022/06/05 10:55:12;;;;;;;159.40;89.72;;;;;;;21.22;91.27;101043.88;4982711;28;20043;-62
2022/06/05 10:57:45;;;;;;;38.28;30.60;;;;;;;20.95;94.69;101044.91;4983536;28;20530;-63
2022/06/05 11:00:22;;;;;;;35.20;29.25;;;;;;;20.79;98.33;101042.75;4985159;28;20062;-63
2022/06/05 11:03:08;;;;;;;38.85;34.65;;;;;;;20.65;100.00;101040.53;4985121;28;20413;-63
2022/06/05 11:06:00;;;;;;;33.65;28.20;;;;;;;20.49;100.00;101032.13;4985487;28;20049;-63
2022/06/05 11:09:10;;;;;;;30.35;25.02;;;;;;;20.37;100.00;101040.56;4985815;28;20034;-63
2022/06/05 11:15:05;;;;;;;31.52;24.95;;;;;;;20.26;100.00;101037.38;4984750;28;20058;-66
2022/06/05 11:17:35;;;;;;;34.55;29.80;;;;;;;20.07;100.00;101032.59;4985307;28;20038;-67
2022/06/05 11:20:21;;;;;;;34.58;27.38;;;;;;;19.94;100.00;101036.63;4986476;28;20039;-66
2022/06/05 11:22:55;;;;;;;39.83;28.95;;;;;;;19.81;100.00;101031.63;4984786;28;20101;-67
2022/06/05 11:25:29;;;;;;;31.40;23.52;;;;;;;19.85;100.00;101022.56;4987689;28;20052;-67
2022/06/05 11:28:15;;;;;;;32.58;24.13;;;;;;;19.92;100.00;101027.72;4982385;28;20030;-66
2022/06/05 11:31:10;;;;;;;29.10;21.85;;;;;;;19.93;100.00;101019.63;4991799;28;20065;-67
2022/06/05 11:33:48;;;;;;;28.83;21.30;;;;;;;19.68;100.00;101011.44;4983450;28;20058;-68
2022/06/05 11:36:22;;;;;;;28.38;21.90;;;;;;;19.48;100.00;101017.41;4992461;28;20034;-68
2022/06/05 11:38:50;;;;;;;31.75;23.92;;;;;;;19.24;100.00;101013.66;4990009;28;20030;-68
2022/06/05 11:41:34;;;;;;;29.80;23.77;;;;;;;19.12;100.00;101009.50;4991362;28;20042;-67
2022/06/05 11:44:26;;;;;;;30.27;23.98;;;;;;;19.09;100.00;101001.56;4989342;28;20037;-70
2022/06/05 11:47:02;;;;;;;29.23;22.73;;;;;;;19.05;100.00;100997.25;4989521;28;20053;-71
2022/06/05 11:49:49;;;;;;;29.80;22.85;;;;;;;18.98;100.00;101002.75;4990803;28;20041;-70